sensor_id;sensor_type;location;lat;lon;timestamp;P1;P2;P0
76383;PMS7003;65204;48.606;7.598;2023-05-09T00:00:27;12.25;11.25;9.50
76383;PMS7003;65204;48.606;7.598;2023-05-09T00:01:04;14.50;14.50;10.75
76383;PMS7003;65204;48.606;7.598;2023-05-09T00:01:35;13.80;13.80;9.00
76383;PMS7003;65204;48.606;7.598;2023-05-09T00:02:05;14.00;11.25;8.50
76383;PMS7003;65204;48.606;7.598;2023-05-09T00:02:37;14.50;11.50;9.50
76383;PMS7003;65204;48.606;7.598;2023-05-09T00:03:07;14.60;13.80;11.60
76383;PMS7003;65204;48.606;7.598;2023-05-09T00:03:38;11.50;11.25;9.75
76383;PMS7003;65204;48.606;7.598;2023-05-09T00:04:09;13.50;12.50;10.25
76383;PMS7003;65204;48.606;7.598;2023-05-09T00:04:40;12.80;12.80;10.20
76383;PMS7003;65204;48.606;7.598;2023-05-09T00:05:10;12.25;10.50;8.00
76383;PMS7003;65204;48.606;7.598;2023-05-09T00:05:41;15.25;12.50;10.25
76383;PMS7003;65204;48.606;7.598;2023-05-09T00:06:11;12.00;11.50;9.25
76383;PMS7003;65204;48.606;7.598;2023-05-09T00:06:42;11.75;11.75;8.50
76383;PMS7003;65204;48.606;7.598;2023-05-09T00:07:12;11.25;11.25;8.50
76383;PMS7003;65204;48.606;7.598;2023-05-09T00:07:43;11.25;11.00;9.25
76383;PMS7003;65204;48.606;7.598;2023-05-09T00:08:13;11.25;9.75;7.75
76383;PMS7003;65204;48.606;7.598;2023-05-09T00:08:44;11.75;11.75;9.25
76383;PMS7003;65204;48.606;7.598;2023-05-09T00:09:14;14.25;12.25;9.00
76383;PMS7003;65204;48.606;7.598;2023-05-09T00:09:44;13.00;13.00;9.25
76383;PMS7003;65204;48.606;7.598;2023-05-09T00:10:15;12.50;12.50;10.25
76383;PMS7003;65204;48.606;7.598;2023-05-09T00:10:45;12.00;12.00;9.50
76383;PMS7003;65204;48.606;7.598;2023-05-09T00:11:16;10.00;10.00;8.50
76383;PMS7003;65204;48.606;7.598;2023-05-09T00:11:46;11.50;11.50;9.25
76383;PMS7003;65204;48.606;7.598;2023-05-09T00:12:16;12.00;12.00;9.50
76383;PMS7003;65204;48.606;7.598;2023-05-09T00:12:47;12.50;11.00;9.50
76383;PMS7003;65204;48.606;7.598;2023-05-09T00:13:18;13.60;12.20;9.20
76383;PMS7003;65204;48.606;7.598;2023-05-09T00:13:49;11.75;11.75;9.00
76383;PMS7003;65204;48.606;7.598;2023-05-09T00:14:19;9.50;9.50;8.75
76383;PMS7003;65204;48.606;7.598;2023-05-09T00:14:50;13.75;12.50;9.50
76383;PMS7003;65204;48.606;7.598;2023-05-09T00:15:20;13.25;10.75;8.50
76383;PMS7003;65204;48.606;7.598;2023-05-09T00:15:50;13.25;13.25;10.00
76383;PMS7003;65204;48.606;7.598;2023-05-09T00:16:26;13.20;13.20;10.80
76383;PMS7003;65204;48.606;7.598;2023-05-09T00:16:57;13.20;13.20;10.60
76383;PMS7003;65204;48.606;7.598;2023-05-09T00:17:29;12.00;10.80;8.40
76383;PMS7003;65204;48.606;7.598;2023-05-09T00:18:00;11.60;11.60;8.60
76383;PMS7003;65204;48.606;7.598;2023-05-09T00:18:30;10.75;10.00;8.50
76383;PMS7003;65204;48.606;7.598;2023-05-09T00:19:02;10.60;10.20;8.00
76383;PMS7003;65204;48.606;7.598;2023-05-09T00:19:33;12.75;11.50;10.25
76383;PMS7003;65204;48.606;7.598;2023-05-09T00:20:04;11.25;10.75;9.25
76383;PMS7003;65204;48.606;7.598;2023-05-09T00:20:38;12.80;10.80;9.20
76383;PMS7003;65204;48.606;7.598;2023-05-09T00:21:09;13.20;13.20;10.20
76383;PMS7003;65204;48.606;7.598;2023-05-09T00:21:40;12.25;11.25;9.25
76383;PMS7003;65204;48.606;7.598;2023-05-09T00:22:11;14.75;14.50;10.25
76383;PMS7003;65204;48.606;7.598;2023-05-09T00:22:41;11.20;11.20;9.60
76383;PMS7003;65204;48.606;7.598;2023-05-09T00:23:12;12.75;12.50;9.25
76383;PMS7003;65204;48.606;7.598;2023-05-09T00:23:42;13.75;12.75;10.50
76383;PMS7003;65204;48.606;7.598;2023-05-09T00:24:13;10.50;10.50;8.50
76383;PMS7003;65204;48.606;7.598;2023-05-09T00:24:43;10.75;10.75;9.50
76383;PMS7003;65204;48.606;7.598;2023-05-09T00:25:13;10.75;10.75;9.00
76383;PMS7003;65204;48.606;7.598;2023-05-09T00:25:44;11.25;10.75;9.50
76383;PMS7003;65204;48.606;7.598;2023-05-09T00:26:14;12.00;12.00;9.75
76383;PMS7003;65204;48.606;7.598;2023-05-09T00:26:45;11.80;11.60;8.80
76383;PMS7003;65204;48.606;7.598;2023-05-09T00:27:16;11.25;10.50;8.00
76383;PMS7003;65204;48.606;7.598;2023-05-09T00:27:47;11.40;11.40;10.20
76383;PMS7003;65204;48.606;7.598;2023-05-09T00:28:17;7.00;7.00;6.25
76383;PMS7003;65204;48.606;7.598;2023-05-09T00:28:49;13.60;12.60;9.00
76383;PMS7003;65204;48.606;7.598;2023-05-09T00:29:19;11.25;9.75;8.00
76383;PMS7003;65204;48.606;7.598;2023-05-09T00:29:49;12.75;12.75;9.75
76383;PMS7003;65204;48.606;7.598;2023-05-09T00:30:20;12.00;12.00;9.00
76383;PMS7003;65204;48.606;7.598;2023-05-09T00:30:50;11.25;11.25;10.25
76383;PMS7003;65204;48.606;7.598;2023-05-09T00:31:20;12.00;10.50;8.25
76383;PMS7003;65204;48.606;7.598;2023-05-09T00:31:51;12.50;9.50;7.00
76383;PMS7003;65204;48.606;7.598;2023-05-09T00:32:21;11.00;11.00;8.25
76383;PMS7003;65204;48.606;7.598;2023-05-09T00:32:51;11.25;11.25;9.75
76383;PMS7003;65204;48.606;7.598;2023-05-09T00:33:22;12.25;11.25;8.00
76383;PMS7003;65204;48.606;7.598;2023-05-09T00:33:55;12.00;11.20;9.20
76383;PMS7003;65204;48.606;7.598;2023-05-09T00:34:26;9.00;9.00;8.00
76383;PMS7003;65204;48.606;7.598;2023-05-09T00:34:56;12.25;10.25;8.75
76383;PMS7003;65204;48.606;7.598;2023-05-09T00:35:27;12.00;12.00;9.00
76383;PMS7003;65204;48.606;7.598;2023-05-09T00:35:58;10.75;10.75;9.00
76383;PMS7003;65204;48.606;7.598;2023-05-09T00:36:28;9.25;9.25;7.25
76383;PMS7003;65204;48.606;7.598;2023-05-09T00:36:58;11.00;11.00;8.25
76383;PMS7003;65204;48.606;7.598;2023-05-09T00:37:30;14.40;12.60;9.80
76383;PMS7003;65204;48.606;7.598;2023-05-09T00:38:00;10.75;10.75;8.25
76383;PMS7003;65204;48.606;7.598;2023-05-09T00:38:30;11.50;10.50;8.25
76383;PMS7003;65204;48.606;7.598;2023-05-09T00:39:01;11.25;10.25;8.50
76383;PMS7003;65204;48.606;7.598;2023-05-09T00:39:31;12.25;11.75;9.25
76383;PMS7003;65204;48.606;7.598;2023-05-09T00:40:02;11.75;10.50;8.50
76383;PMS7003;65204;48.606;7.598;2023-05-09T00:40:34;11.40;10.40;9.40
76383;PMS7003;65204;48.606;7.598;2023-05-09T00:41:05;13.50;12.50;10.50
76383;PMS7003;65204;48.606;7.598;2023-05-09T00:41:35;9.50;9.50;7.25
76383;PMS7003;65204;48.606;7.598;2023-05-09T00:42:05;11.50;11.00;8.00
76383;PMS7003;65204;48.606;7.598;2023-05-09T00:42:36;13.75;11.50;10.00
76383;PMS7003;65204;48.606;7.598;2023-05-09T00:43:06;9.00;9.00;8.00
76383;PMS7003;65204;48.606;7.598;2023-05-09T00:43:37;11.00;11.00;8.75
76383;PMS7003;65204;48.606;7.598;2023-05-09T00:44:07;10.75;10.75;7.25
76383;PMS7003;65204;48.606;7.598;2023-05-09T00:44:37;11.25;11.25;8.75
76383;PMS7003;65204;48.606;7.598;2023-05-09T00:45:08;11.50;9.75;8.25
76383;PMS7003;65204;48.606;7.598;2023-05-09T00:45:39;17.00;13.25;9.75
76383;PMS7003;65204;48.606;7.598;2023-05-09T00:46:09;9.75;9.75;8.50
76383;PMS7003;65204;48.606;7.598;2023-05-09T00:46:40;13.50;8.50;8.00
76383;PMS7003;65204;48.606;7.598;2023-05-09T00:47:11;10.00;9.25;7.00
76383;PMS7003;65204;48.606;7.598;2023-05-09T00:47:41;11.75;10.25;8.50
76383;PMS7003;65204;48.606;7.598;2023-05-09T00:48:13;11.25;10.00;7.00
76383;PMS7003;65204;48.606;7.598;2023-05-09T00:48:44;12.40;11.00;7.40
76383;PMS7003;65204;48.606;7.598;2023-05-09T00:49:15;13.20;11.20;9.60
76383;PMS7003;65204;48.606;7.598;2023-05-09T00:49:45;9.50;9.50;8.50
76383;PMS7003;65204;48.606;7.598;2023-05-09T00:50:16;11.50;11.50;10.00
76383;PMS7003;65204;48.606;7.598;2023-05-09T00:50:46;8.75;8.75;7.25
76383;PMS7003;65204;48.606;7.598;2023-05-09T00:51:21;11.40;11.20;8.60
76383;PMS7003;65204;48.606;7.598;2023-05-09T00:51:53;12.20;11.20;9.20
76383;PMS7003;65204;48.606;7.598;2023-05-09T00:52:24;10.80;10.00;8.20
76383;PMS7003;65204;48.606;7.598;2023-05-09T00:52:58;10.75;9.75;8.00
76383;PMS7003;65204;48.606;7.598;2023-05-09T00:53:29;12.40;12.40;10.00
76383;PMS7003;65204;48.606;7.598;2023-05-09T00:54:00;6.25;6.25;5.50
76383;PMS7003;65204;48.606;7.598;2023-05-09T00:54:30;14.00;13.50;8.75
76383;PMS7003;65204;48.606;7.598;2023-05-09T00:55:01;11.00;10.25;9.25
76383;PMS7003;65204;48.606;7.598;2023-05-09T00:55:32;11.80;11.20;8.60
76383;PMS7003;65204;48.606;7.598;2023-05-09T00:56:02;9.25;9.25;8.25
76383;PMS7003;65204;48.606;7.598;2023-05-09T00:56:33;10.40;10.40;8.00
76383;PMS7003;65204;48.606;7.598;2023-05-09T00:57:04;13.00;11.50;8.50
76383;PMS7003;65204;48.606;7.598;2023-05-09T00:57:35;11.25;9.75;7.00
76383;PMS7003;65204;48.606;7.598;2023-05-09T00:58:05;11.50;11.50;9.25
76383;PMS7003;65204;48.606;7.598;2023-05-09T00:58:35;7.50;7.50;6.75
76383;PMS7003;65204;48.606;7.598;2023-05-09T00:59:06;12.60;10.80;8.80
76383;PMS7003;65204;48.606;7.598;2023-05-09T00:59:37;10.25;10.25;8.50
76383;PMS7003;65204;48.606;7.598;2023-05-09T01:00:08;10.75;10.75;8.00
76383;PMS7003;65204;48.606;7.598;2023-05-09T01:00:41;9.60;9.60;7.60
76383;PMS7003;65204;48.606;7.598;2023-05-09T01:01:12;12.50;10.50;8.25
76383;PMS7003;65204;48.606;7.598;2023-05-09T01:01:42;11.50;11.50;8.50
76383;PMS7003;65204;48.606;7.598;2023-05-09T01:02:16;12.00;12.00;8.80
76383;PMS7003;65204;48.606;7.598;2023-05-09T01:02:48;10.60;10.20;8.20
76383;PMS7003;65204;48.606;7.598;2023-05-09T01:03:22;10.00;9.80;7.80
76383;PMS7003;65204;48.606;7.598;2023-05-09T01:03:52;7.25;7.25;5.00
76383;PMS7003;65204;48.606;7.598;2023-05-09T01:04:24;12.00;10.00;7.80
76383;PMS7003;65204;48.606;7.598;2023-05-09T01:04:54;11.00;11.00;8.50
76383;PMS7003;65204;48.606;7.598;2023-05-09T01:05:26;12.50;12.50;10.00
76383;PMS7003;65204;48.606;7.598;2023-05-09T01:06:12;11.60;11.60;9.00
76383;PMS7003;65204;48.606;7.598;2023-05-09T01:07:05;11.80;11.80;9.60
76383;PMS7003;65204;48.606;7.598;2023-05-09T01:07:56;12.60;11.80;9.80
76383;PMS7003;65204;48.606;7.598;2023-05-09T01:09:36;15.60;11.80;9.60
76383;PMS7003;65204;48.606;7.598;2023-05-09T01:12:02;13.25;12.50;9.75
76383;PMS7003;65204;48.606;7.598;2023-05-09T01:14:31;12.60;12.60;9.20
76383;PMS7003;65204;48.606;7.598;2023-05-09T01:15:11;13.80;13.80;11.20
76383;PMS7003;65204;48.606;7.598;2023-05-09T01:16:09;14.20;12.20;10.20
76383;PMS7003;65204;48.606;7.598;2023-05-09T01:17:03;15.60;14.60;10.40
76383;PMS7003;65204;48.606;7.598;2023-05-09T01:17:57;13.80;13.80;11.40
76383;PMS7003;65204;48.606;7.598;2023-05-09T01:18:33;12.40;12.40;9.40
76383;PMS7003;65204;48.606;7.598;2023-05-09T01:20:46;14.20;14.20;10.40
76383;PMS7003;65204;48.606;7.598;2023-05-09T01:21:07;14.80;14.80;11.60
76383;PMS7003;65204;48.606;7.598;2023-05-09T01:21:41;14.60;13.20;10.20
76383;PMS7003;65204;48.606;7.598;2023-05-09T01:22:13;15.80;14.80;11.80
76383;PMS7003;65204;48.606;7.598;2023-05-09T01:22:45;17.40;17.40;12.60
76383;PMS7003;65204;48.606;7.598;2023-05-09T01:23:46;15.40;12.60;9.80
76383;PMS7003;65204;48.606;7.598;2023-05-09T01:24:38;14.40;14.00;12.20
76383;PMS7003;65204;48.606;7.598;2023-05-09T01:25:43;16.80;15.40;11.40
76383;PMS7003;65204;48.606;7.598;2023-05-09T01:26:27;15.80;15.60;10.00
76383;PMS7003;65204;48.606;7.598;2023-05-09T01:28:05;11.00;10.40;8.40
76383;PMS7003;65204;48.606;7.598;2023-05-09T01:28:55;14.60;14.40;11.60
76383;PMS7003;65204;48.606;7.598;2023-05-09T01:29:50;14.60;14.60;12.00
76383;PMS7003;65204;48.606;7.598;2023-05-09T01:30:24;15.40;15.40;11.20
76383;PMS7003;65204;48.606;7.598;2023-05-09T01:30:56;16.20;15.80;10.80
76383;PMS7003;65204;48.606;7.598;2023-05-09T01:31:26;17.50;16.25;12.50
76383;PMS7003;65204;48.606;7.598;2023-05-09T01:31:58;14.60;13.20;11.20
76383;PMS7003;65204;48.606;7.598;2023-05-09T01:32:52;16.20;16.20;12.00
76383;PMS7003;65204;48.606;7.598;2023-05-09T01:33:31;16.60;15.80;12.00
76383;PMS7003;65204;48.606;7.598;2023-05-09T01:34:05;19.20;17.40;12.40
76383;PMS7003;65204;48.606;7.598;2023-05-09T01:34:38;15.20;15.20;12.20
76383;PMS7003;65204;48.606;7.598;2023-05-09T01:35:12;17.20;17.00;12.40
76383;PMS7003;65204;48.606;7.598;2023-05-09T01:35:43;18.40;16.60;12.40
76383;PMS7003;65204;48.606;7.598;2023-05-09T01:36:19;18.00;15.80;12.20
76383;PMS7003;65204;48.606;7.598;2023-05-09T01:36:50;17.80;15.40;12.20
76383;PMS7003;65204;48.606;7.598;2023-05-09T01:37:32;18.60;18.60;14.80
76383;PMS7003;65204;48.606;7.598;2023-05-09T01:38:09;19.00;16.80;12.20
76383;PMS7003;65204;48.606;7.598;2023-05-09T01:38:46;16.00;16.00;12.00
76383;PMS7003;65204;48.606;7.598;2023-05-09T01:39:19;15.20;14.80;11.00
76383;PMS7003;65204;48.606;7.598;2023-05-09T01:39:53;21.60;18.20;13.20
76383;PMS7003;65204;48.606;7.598;2023-05-09T01:40:26;18.40;18.40;14.00
76383;PMS7003;65204;48.606;7.598;2023-05-09T01:41:01;18.80;16.00;12.40
76383;PMS7003;65204;48.606;7.598;2023-05-09T01:41:35;19.80;18.60;12.20
76383;PMS7003;65204;48.606;7.598;2023-05-09T01:42:07;18.20;17.80;13.20
76383;PMS7003;65204;48.606;7.598;2023-05-09T01:42:41;17.00;15.40;13.20
76383;PMS7003;65204;48.606;7.598;2023-05-09T01:43:15;15.60;15.60;12.60
76383;PMS7003;65204;48.606;7.598;2023-05-09T01:43:48;18.40;17.80;12.20
76383;PMS7003;65204;48.606;7.598;2023-05-09T01:44:21;18.60;16.60;12.20
76383;PMS7003;65204;48.606;7.598;2023-05-09T01:44:52;17.40;16.20;12.60
76383;PMS7003;65204;48.606;7.598;2023-05-09T01:45:23;17.60;14.80;11.80
76383;PMS7003;65204;48.606;7.598;2023-05-09T01:45:56;19.80;18.40;14.40
76383;PMS7003;65204;48.606;7.598;2023-05-09T01:46:27;16.00;16.00;12.60
76383;PMS7003;65204;48.606;7.598;2023-05-09T01:46:58;17.00;17.00;12.00
76383;PMS7003;65204;48.606;7.598;2023-05-09T01:47:30;17.80;17.20;12.20
76383;PMS7003;65204;48.606;7.598;2023-05-09T01:48:01;16.00;16.00;13.25
76383;PMS7003;65204;48.606;7.598;2023-05-09T01:48:32;17.40;17.40;13.40
76383;PMS7003;65204;48.606;7.598;2023-05-09T01:49:06;15.00;15.00;11.60
76383;PMS7003;65204;48.606;7.598;2023-05-09T01:49:38;15.40;14.60;11.60
76383;PMS7003;65204;48.606;7.598;2023-05-09T01:50:11;19.60;17.80;14.00
76383;PMS7003;65204;48.606;7.598;2023-05-09T01:50:42;20.60;19.40;15.40
76383;PMS7003;65204;48.606;7.598;2023-05-09T01:51:14;18.60;17.80;12.60
76383;PMS7003;65204;48.606;7.598;2023-05-09T01:51:46;19.20;17.60;12.00
76383;PMS7003;65204;48.606;7.598;2023-05-09T01:52:17;18.20;14.40;12.20
76383;PMS7003;65204;48.606;7.598;2023-05-09T01:52:49;18.80;17.60;12.20
76383;PMS7003;65204;48.606;7.598;2023-05-09T01:53:23;21.00;17.60;12.80
76383;PMS7003;65204;48.606;7.598;2023-05-09T01:53:56;16.80;16.80;13.60
76383;PMS7003;65204;48.606;7.598;2023-05-09T01:54:29;15.80;15.80;12.80
76383;PMS7003;65204;48.606;7.598;2023-05-09T01:55:00;15.75;15.75;11.75
76383;PMS7003;65204;48.606;7.598;2023-05-09T01:55:31;19.00;17.60;12.20
76383;PMS7003;65204;48.606;7.598;2023-05-09T01:56:04;18.60;18.00;12.60
76383;PMS7003;65204;48.606;7.598;2023-05-09T01:56:38;17.00;16.20;11.60
76383;PMS7003;65204;48.606;7.598;2023-05-09T01:57:11;20.80;16.80;13.60
76383;PMS7003;65204;48.606;7.598;2023-05-09T01:57:42;15.20;14.40;11.20
76383;PMS7003;65204;48.606;7.598;2023-05-09T01:58:14;14.00;14.00;11.60
76383;PMS7003;65204;48.606;7.598;2023-05-09T01:58:47;19.40;18.00;13.00
76383;PMS7003;65204;48.606;7.598;2023-05-09T01:59:19;14.80;14.80;10.80
76383;PMS7003;65204;48.606;7.598;2023-05-09T01:59:51;16.60;16.60;11.40
76383;PMS7003;65204;48.606;7.598;2023-05-09T02:00:23;16.80;15.80;12.80
76383;PMS7003;65204;48.606;7.598;2023-05-09T02:00:54;12.80;12.80;10.40
76383;PMS7003;65204;48.606;7.598;2023-05-09T02:01:24;18.75;17.25;12.50
76383;PMS7003;65204;48.606;7.598;2023-05-09T02:01:55;16.60;16.60;11.60
76383;PMS7003;65204;48.606;7.598;2023-05-09T02:02:26;12.80;12.80;9.60
76383;PMS7003;65204;48.606;7.598;2023-05-09T02:02:57;19.40;18.00;12.20
76383;PMS7003;65204;48.606;7.598;2023-05-09T02:03:28;16.00;14.25;11.00
76383;PMS7003;65204;48.606;7.598;2023-05-09T02:03:59;14.50;12.50;9.25
76383;PMS7003;65204;48.606;7.598;2023-05-09T02:04:31;18.20;15.60;12.80
76383;PMS7003;65204;48.606;7.598;2023-05-09T02:05:04;17.00;15.40;11.80
76383;PMS7003;65204;48.606;7.598;2023-05-09T02:05:35;19.20;17.80;12.20
76383;PMS7003;65204;48.606;7.598;2023-05-09T02:06:06;15.20;15.20;11.60
76383;PMS7003;65204;48.606;7.598;2023-05-09T02:06:38;13.80;13.80;10.80
76383;PMS7003;65204;48.606;7.598;2023-05-09T02:07:10;16.40;14.60;11.40
76383;PMS7003;65204;48.606;7.598;2023-05-09T02:07:41;18.20;16.20;12.40
76383;PMS7003;65204;48.606;7.598;2023-05-09T02:08:13;15.75;15.75;11.25
76383;PMS7003;65204;48.606;7.598;2023-05-09T02:08:44;21.20;20.20;12.20
76383;PMS7003;65204;48.606;7.598;2023-05-09T02:09:16;18.20;15.60;11.60
76383;PMS7003;65204;48.606;7.598;2023-05-09T02:09:47;15.60;14.80;11.60
76383;PMS7003;65204;48.606;7.598;2023-05-09T02:10:19;14.40;14.40;11.20
76383;PMS7003;65204;48.606;7.598;2023-05-09T02:10:50;13.80;13.80;9.80
76383;PMS7003;65204;48.606;7.598;2023-05-09T02:11:20;16.50;16.50;13.00
76383;PMS7003;65204;48.606;7.598;2023-05-09T02:11:51;17.75;16.75;12.00
76383;PMS7003;65204;48.606;7.598;2023-05-09T02:12:23;16.40;15.40;10.40
76383;PMS7003;65204;48.606;7.598;2023-05-09T02:12:53;16.25;15.00;11.50
76383;PMS7003;65204;48.606;7.598;2023-05-09T02:13:24;15.00;13.80;11.40
76383;PMS7003;65204;48.606;7.598;2023-05-09T02:13:54;17.50;17.50;11.25
76383;PMS7003;65204;48.606;7.598;2023-05-09T02:14:25;16.25;16.25;12.50
76383;PMS7003;65204;48.606;7.598;2023-05-09T02:14:55;19.50;15.75;13.50
76383;PMS7003;65204;48.606;7.598;2023-05-09T02:15:26;16.50;16.00;11.00
76383;PMS7003;65204;48.606;7.598;2023-05-09T02:15:58;15.40;15.40;10.80
76383;PMS7003;65204;48.606;7.598;2023-05-09T02:16:28;14.00;14.00;11.00
76383;PMS7003;65204;48.606;7.598;2023-05-09T02:16:59;16.75;15.00;12.25
76383;PMS7003;65204;48.606;7.598;2023-05-09T02:17:35;15.80;15.60;13.00
76383;PMS7003;65204;48.606;7.598;2023-05-09T02:18:06;15.20;14.60;11.40
76383;PMS7003;65204;48.606;7.598;2023-05-09T02:18:36;14.25;14.25;11.00
76383;PMS7003;65204;48.606;7.598;2023-05-09T02:19:07;19.60;18.40;13.80
76383;PMS7003;65204;48.606;7.598;2023-05-09T02:19:37;14.75;14.75;11.50
76383;PMS7003;65204;48.606;7.598;2023-05-09T02:20:08;14.00;14.00;11.25
76383;PMS7003;65204;48.606;7.598;2023-05-09T02:20:40;15.40;13.20;10.40
76383;PMS7003;65204;48.606;7.598;2023-05-09T02:21:10;18.75;16.75;11.50
76383;PMS7003;65204;48.606;7.598;2023-05-09T02:21:40;19.00;18.00;12.00
76383;PMS7003;65204;48.606;7.598;2023-05-09T02:22:11;13.25;12.25;10.25
76383;PMS7003;65204;48.606;7.598;2023-05-09T02:22:43;19.80;16.80;11.60
76383;PMS7003;65204;48.606;7.598;2023-05-09T02:23:13;8.60;7.60;6.20
76383;PMS7003;65204;48.606;7.598;2023-05-09T02:23:44;16.50;13.50;11.50
76383;PMS7003;65204;48.606;7.598;2023-05-09T02:24:15;14.00;13.00;11.50
76383;PMS7003;65204;48.606;7.598;2023-05-09T02:24:45;16.00;15.50;11.50
76383;PMS7003;65204;48.606;7.598;2023-05-09T02:25:16;13.75;13.75;9.75
76383;PMS7003;65204;48.606;7.598;2023-05-09T02:25:47;14.00;13.60;10.00
76383;PMS7003;65204;48.606;7.598;2023-05-09T02:26:18;17.00;16.00;11.25
76383;PMS7003;65204;48.606;7.598;2023-05-09T02:26:49;15.25;15.25;11.75
76383;PMS7003;65204;48.606;7.598;2023-05-09T02:27:19;13.25;11.25;9.00
76383;PMS7003;65204;48.606;7.598;2023-05-09T02:27:50;11.80;11.80;10.20
76383;PMS7003;65204;48.606;7.598;2023-05-09T02:28:22;18.00;16.60;11.40
76383;PMS7003;65204;48.606;7.598;2023-05-09T02:28:56;15.80;14.20;11.20
76383;PMS7003;65204;48.606;7.598;2023-05-09T02:29:29;15.00;13.60;11.00
76383;PMS7003;65204;48.606;7.598;2023-05-09T02:30:10;16.80;16.80;13.20
76383;PMS7003;65204;48.606;7.598;2023-05-09T02:30:48;13.00;13.00;10.80
76383;PMS7003;65204;48.606;7.598;2023-05-09T02:31:19;14.00;14.00;9.40
76383;PMS7003;65204;48.606;7.598;2023-05-09T02:31:52;12.40;12.40;10.00
76383;PMS7003;65204;48.606;7.598;2023-05-09T02:32:24;17.50;16.50;12.00
76383;PMS7003;65204;48.606;7.598;2023-05-09T02:33:01;14.00;12.80;11.80
76383;PMS7003;65204;48.606;7.598;2023-05-09T02:33:35;14.40;13.20;11.00
76383;PMS7003;65204;48.606;7.598;2023-05-09T02:34:07;13.80;12.40;9.60
76383;PMS7003;65204;48.606;7.598;2023-05-09T02:34:39;13.00;12.40;10.40
76383;PMS7003;65204;48.606;7.598;2023-05-09T02:35:10;14.00;12.60;9.40
76383;PMS7003;65204;48.606;7.598;2023-05-09T02:35:43;12.60;11.40;10.20
76383;PMS7003;65204;48.606;7.598;2023-05-09T02:36:15;13.40;13.40;10.60
76383;PMS7003;65204;48.606;7.598;2023-05-09T02:36:47;14.80;14.80;11.80
76383;PMS7003;65204;48.606;7.598;2023-05-09T02:37:17;13.50;12.50;10.00
76383;PMS7003;65204;48.606;7.598;2023-05-09T02:37:49;15.00;15.00;11.40
76383;PMS7003;65204;48.606;7.598;2023-05-09T02:38:20;11.00;11.00;8.25
76383;PMS7003;65204;48.606;7.598;2023-05-09T02:38:51;11.25;10.25;7.00
76383;PMS7003;65204;48.606;7.598;2023-05-09T02:39:21;17.00;14.25;11.50
76383;PMS7003;65204;48.606;7.598;2023-05-09T02:39:52;15.25;12.25;9.25
76383;PMS7003;65204;48.606;7.598;2023-05-09T02:40:23;14.00;13.40;10.80
76383;PMS7003;65204;48.606;7.598;2023-05-09T02:40:56;13.00;13.00;10.20
76383;PMS7003;65204;48.606;7.598;2023-05-09T02:41:26;12.00;11.75;9.75
76383;PMS7003;65204;48.606;7.598;2023-05-09T02:42:04;14.20;14.20;10.00
76383;PMS7003;65204;48.606;7.598;2023-05-09T02:42:36;12.20;11.60;9.20
76383;PMS7003;65204;48.606;7.598;2023-05-09T02:43:07;13.25;13.25;11.00
76383;PMS7003;65204;48.606;7.598;2023-05-09T02:43:37;6.25;6.25;4.00
76383;PMS7003;65204;48.606;7.598;2023-05-09T02:44:07;13.25;13.00;10.75
76383;PMS7003;65204;48.606;7.598;2023-05-09T02:44:38;12.00;12.00;10.00
76383;PMS7003;65204;48.606;7.598;2023-05-09T02:45:08;12.50;11.75;10.00
76383;PMS7003;65204;48.606;7.598;2023-05-09T02:45:41;12.60;12.40;10.60
76383;PMS7003;65204;48.606;7.598;2023-05-09T02:46:12;11.50;11.50;10.00
76383;PMS7003;65204;48.606;7.598;2023-05-09T02:46:43;11.75;11.00;9.75
76383;PMS7003;65204;48.606;7.598;2023-05-09T02:47:13;12.50;12.50;10.25
76383;PMS7003;65204;48.606;7.598;2023-05-09T02:47:43;14.25;14.25;10.50
76383;PMS7003;65204;48.606;7.598;2023-05-09T02:48:14;14.25;11.75;8.75
76383;PMS7003;65204;48.606;7.598;2023-05-09T02:48:44;13.75;13.75;11.00
76383;PMS7003;65204;48.606;7.598;2023-05-09T02:49:14;15.75;15.00;11.50
76383;PMS7003;65204;48.606;7.598;2023-05-09T02:49:45;12.50;11.25;9.25
76383;PMS7003;65204;48.606;7.598;2023-05-09T02:50:15;13.25;12.25;10.25
76383;PMS7003;65204;48.606;7.598;2023-05-09T02:50:45;14.25;14.25;12.00
76383;PMS7003;65204;48.606;7.598;2023-05-09T02:51:16;10.75;10.75;8.50
76383;PMS7003;65204;48.606;7.598;2023-05-09T02:51:46;11.50;11.50;10.00
76383;PMS7003;65204;48.606;7.598;2023-05-09T02:52:16;12.75;11.75;9.25
76383;PMS7003;65204;48.606;7.598;2023-05-09T02:52:47;15.00;11.50;9.75
76383;PMS7003;65204;48.606;7.598;2023-05-09T02:53:17;14.75;14.75;11.00
76383;PMS7003;65204;48.606;7.598;2023-05-09T02:53:47;14.25;12.75;8.00
76383;PMS7003;65204;48.606;7.598;2023-05-09T02:54:18;13.00;12.25;11.25
76383;PMS7003;65204;48.606;7.598;2023-05-09T02:54:48;12.75;11.75;9.00
76383;PMS7003;65204;48.606;7.598;2023-05-09T02:55:18;15.00;14.75;11.00
76383;PMS7003;65204;48.606;7.598;2023-05-09T02:55:49;15.00;13.00;10.25
76383;PMS7003;65204;48.606;7.598;2023-05-09T02:56:19;11.50;11.50;9.25
76383;PMS7003;65204;48.606;7.598;2023-05-09T02:56:50;12.00;12.00;8.50
76383;PMS7003;65204;48.606;7.598;2023-05-09T02:57:20;11.25;11.25;9.25
76383;PMS7003;65204;48.606;7.598;2023-05-09T02:57:50;12.50;11.50;9.00
76383;PMS7003;65204;48.606;7.598;2023-05-09T02:58:21;11.25;10.25;8.75
76383;PMS7003;65204;48.606;7.598;2023-05-09T02:58:51;12.50;12.25;9.25
76383;PMS7003;65204;48.606;7.598;2023-05-09T02:59:21;10.25;10.25;10.00
76383;PMS7003;65204;48.606;7.598;2023-05-09T02:59:52;13.00;12.25;9.25
76383;PMS7003;65204;48.606;7.598;2023-05-09T03:00:22;12.00;12.00;9.25
76383;PMS7003;65204;48.606;7.598;2023-05-09T03:00:54;17.40;15.20;10.60
76383;PMS7003;65204;48.606;7.598;2023-05-09T03:01:25;11.50;11.50;11.25
76383;PMS7003;65204;48.606;7.598;2023-05-09T03:01:55;9.25;9.25;7.00
76383;PMS7003;65204;48.606;7.598;2023-05-09T03:02:26;13.75;13.75;10.25
76383;PMS7003;65204;48.606;7.598;2023-05-09T03:02:56;14.50;14.50;10.25
76383;PMS7003;65204;48.606;7.598;2023-05-09T03:03:27;16.75;14.50;11.50
76383;PMS7003;65204;48.606;7.598;2023-05-09T03:03:57;13.25;12.50;9.75
76383;PMS7003;65204;48.606;7.598;2023-05-09T03:04:27;11.00;11.00;8.75
76383;PMS7003;65204;48.606;7.598;2023-05-09T03:04:58;9.75;9.00;7.00
76383;PMS7003;65204;48.606;7.598;2023-05-09T03:05:28;12.75;12.75;9.75
76383;PMS7003;65204;48.606;7.598;2023-05-09T03:05:58;8.00;8.00;5.00
76383;PMS7003;65204;48.606;7.598;2023-05-09T03:06:29;13.00;11.00;8.50
76383;PMS7003;65204;48.606;7.598;2023-05-09T03:06:59;12.25;11.00;9.25
76383;PMS7003;65204;48.606;7.598;2023-05-09T03:07:30;12.25;10.25;8.75
76383;PMS7003;65204;48.606;7.598;2023-05-09T03:08:00;12.00;11.50;9.75
76383;PMS7003;65204;48.606;7.598;2023-05-09T03:08:31;10.25;10.25;8.25
76383;PMS7003;65204;48.606;7.598;2023-05-09T03:09:01;12.25;12.25;9.25
76383;PMS7003;65204;48.606;7.598;2023-05-09T03:09:32;13.75;12.75;9.75
76383;PMS7003;65204;48.606;7.598;2023-05-09T03:10:02;11.50;9.50;9.00
76383;PMS7003;65204;48.606;7.598;2023-05-09T03:10:33;13.50;10.50;8.75